Time;durP1;ratioP1;P1;durP2;ratioP2;P2;SDS_P1;SDS_P2;PMS_P1;PMS_P2;Temp;Humidity;BMP_temperature;BMP_pressure;BME280_temperature;BME280_humidity;BME280_pressure;Samples;Min_cycle;Max_cycle;Signal;HPM_P1;HPM_P2
2023/01/08 00:01:59;;;;;;;;;;;;;;;14.28;53.30;99407.03;4979944;28;7182;-74
2023/01/08 00:04:25;;;;;;;;;;;;;;;14.29;54.14;99411.38;4959689;28;6784;-74
2023/01/08 00:06:50;;;;;;;;;;;;;;;14.32;53.98;99413.13;4976728;28;7031;-74
2023/01/08 00:09:16;;;;;;;;;;;;;;;14.32;53.59;99404.53;4959503;28;6782;-74
2023/01/08 00:11:43;;;;;;;;;;;;;;;14.36;54.43;99402.03;4977875;28;7270;-74
2023/01/08 00:14:09;;;;;;;;;;;;;;;14.39;53.79;99404.66;4956396;28;6967;-74
2023/01/08 00:16:35;;;;;;;;;;;;;;;14.43;53.77;99411.56;4975295;28;7007;-74
2023/01/08 00:19:01;;;;;;;;;;;;;;;14.48;53.05;99421.13;4958578;28;6913;-74
2023/01/08 00:21:27;;;;;;;;;;;;;;;14.54;53.37;99428.97;4958400;28;6768;-74
2023/01/08 00:23:53;;;;;;;;;;;;;;;14.55;53.61;99423.81;4979178;28;6964;-74
2023/01/08 00:26:19;;;;;;;;;;;;;;;14.59;54.26;99398.94;4957172;28;6788;-74
2023/01/08 00:28:44;;;;;;;;;;;;;;;14.63;53.56;99413.63;4953513;28;7281;-73
2023/01/08 00:31:11;;;;;;;;;;;;;;;14.69;53.09;99424.03;4956486;28;6857;-74
2023/01/08 00:33:39;;;;;;;;;;;;;;;14.75;53.41;99409.53;4975798;28;7041;-74
2023/01/08 00:36:15;;;;;;;;;;;;;;;14.78;53.50;99397.56;4962076;28;6959;-74
2023/01/08 00:38:43;;;;;;;;;;;;;;;14.79;52.92;99398.41;4987661;28;7091;-74
2023/01/08 00:41:09;;;;;;;;;;;;;;;14.81;53.56;99387.28;4974425;28;6995;-73
2023/01/08 00:43:35;;;;;;;;;;;;;;;14.87;53.17;99389.06;4973426;28;6974;-74
2023/01/08 00:46:01;;;;;;;;;;;;;;;14.91;52.90;99377.09;4959566;28;7003;-74
2023/01/08 00:48:26;;;;;;;;;;;;;;;14.93;52.97;99390.88;4972534;28;6935;-74
2023/01/08 00:50:53;;;;;;;;;;;;;;;14.94;52.48;99390.91;4972538;28;7144;-75
2023/01/08 00:53:20;;;;;;;;;;;;;;;14.95;53.03;99376.28;4975501;28;6979;-74
2023/01/08 00:55:46;;;;;;;;;;;;;;;14.96;52.14;99380.59;4978427;28;7260;-74
2023/01/08 00:58:14;;;;;;;;;;;;;;;15.00;52.35;99387.53;4962715;28;6776;-73
2023/01/08 01:00:40;;;;;;;;;;;;;;;15.03;52.81;99381.56;4961318;28;7034;-74
2023/01/08 01:03:05;;;;;;;;;;;;;;;15.07;52.35;99379.03;4979804;28;7254;-74
2023/01/08 01:05:31;;;;;;;;;;;;;;;15.07;52.60;99394.53;4964025;28;6784;-74
2023/01/08 01:07:57;;;;;;;;;;;;;;;15.08;52.15;99395.38;4977178;28;6776;-74
2023/01/08 01:10:23;;;;;;;;;;;;;;;15.10;52.04;99398.84;4960855;28;6800;-74
2023/01/08 01:12:49;;;;;;;;;;;;;;;15.13;52.42;99396.31;4977917;28;7176;-74
2023/01/08 01:15:17;;;;;;;;;;;;;;;15.13;51.93;99399.75;4978301;28;6840;-74
2023/01/08 01:17:45;;;;;;;;;;;;;;;15.17;52.43;99400.66;4956319;28;6881;-73
2023/01/08 01:20:14;;;;;;;;;;;;;;;15.20;52.49;99394.69;4961730;28;7161;-74
2023/01/08 01:22:41;;;;;;;;;;;;;;;15.21;52.14;99393.81;4962993;28;6981;-74
2023/01/08 01:25:07;;;;;;;;;;;;;;;15.24;51.98;99386.09;4978977;28;6978;-73
2023/01/08 01:27:33;;;;;;;;;;;;;;;15.27;51.84;99381.84;4976392;28;7410;-74
2023/01/08 01:30:00;;;;;;;;;;;;;;;15.27;51.95;99375.84;4975310;28;6959;-74
2023/01/08 01:32:25;;;;;;;;;;;;;;;15.27;51.68;99374.13;4956585;28;6808;-73
2023/01/08 01:34:51;;;;;;;;;;;;;;;15.29;51.37;99376.72;4957074;28;7142;-74
2023/01/08 01:37:17;;;;;;;;;;;;;;;15.28;51.60;99382.75;4958420;28;7005;-74
2023/01/08 01:39:42;;;;;;;;;;;;;;;15.27;51.68;99375.84;4956755;28;6812;-74
2023/01/08 01:45:02;;;;;;;;;;;;;;;15.23;51.73;99368.91;4959492;28;6800;-74
2023/01/08 01:47:36;;;;;;;;;;;;;;;15.20;51.76;99355.97;4985314;28;6964;-74
2023/01/08 01:50:15;;;;;;;;;;;;;;;15.21;51.58;99360.28;4960867;28;6812;-74
2023/01/08 01:52:49;;;;;;;;;;;;;;;15.17;51.64;99366.25;4975123;28;7214;-74
2023/01/08 01:55:17;;;;;;;;;;;;;;;15.17;51.51;99353.34;4989574;28;7051;-74
2023/01/08 01:57:51;;;;;;;;;;;;;;;15.17;51.94;99351.63;4977493;28;7054;-74
2023/01/08 02:00:17;;;;;;;;;;;;;;;15.13;51.34;99349.88;4990226;28;6988;-74
2023/01/08 02:02:44;;;;;;;;;;;;;;;15.10;51.52;99342.94;4975358;28;6955;-74
2023/01/08 02:05:10;;;;;;;;;;;;;;;15.09;52.01;99345.50;4972617;28;6991;-74
2023/01/08 02:07:44;;;;;;;;;;;;;;;15.05;52.25;99349.75;4956948;28;6788;-73
2023/01/08 02:10:40;;;;;;;;;;;;;;;15.06;52.13;99346.31;4955802;28;6784;-74
2023/01/08 02:13:41;;;;;;;;;;;;;;;15.03;51.77;99348.88;4982455;28;7965;-74
2023/01/08 02:16:25;;;;;;;;;;;;;;;15.04;51.69;99349.75;4963365;28;7007;-74
2023/01/08 02:19:26;;;;;;;;;;;;;;;15.02;51.66;99347.13;4958090;28;7290;-74
2023/01/08 02:22:38;;;;;;;;;;;;;;;15.04;51.87;99348.00;4978310;28;7002;-75
2023/01/08 02:25:10;;;;;;;;;;;;;;;15.01;51.56;99342.81;4955688;28;6997;-73
2023/01/08 02:27:43;;;;;;;;;;;;;;;15.00;51.75;99341.09;4971526;28;7169;-74
2023/01/08 02:30:10;;;;;;;;;;;;;;;15.03;51.64;99324.78;4956890;28;6892;-74
2023/01/08 02:32:39;;;;;;;;;;;;;;;15.04;51.95;99327.38;4974628;28;11290;-74
2023/01/08 02:35:06;;;;;;;;;;;;;;;15.03;51.41;99320.47;4988208;28;6968;-74
2023/01/08 02:37:33;;;;;;;;;;;;;;;15.02;51.24;99323.03;4956491;28;7226;-74
2023/01/08 02:40:17;;;;;;;;;;;;;;;15.01;51.24;99317.03;4974619;28;7096;-74
2023/01/08 02:43:01;;;;;;;;;;;;;;;15.02;51.03;99312.72;4959115;28;6804;-74
2023/01/08 02:45:49;;;;;;;;;;;;;;;15.01;51.38;99314.44;4987169;28;9052;-74
2023/01/08 02:48:53;;;;;;;;;;;;;;;15.00;51.28;99310.13;4989520;28;7059;-74
2023/01/08 02:51:32;;;;;;;;;;;;;;;14.97;51.72;99299.78;4987003;28;7257;-74
2023/01/08 02:54:03;;;;;;;;;;;;;;;14.96;51.36;99298.03;4973282;28;7239;-73
2023/01/08 02:56:35;;;;;;;;;;;;;;;14.96;51.22;99292.84;4939767;28;7229;-73
2023/01/08 02:59:06;;;;;;;;;;;;;;;14.99;51.48;99290.34;4960291;28;6827;-74
2023/01/08 03:01:34;;;;;;;;;;;;;;;15.02;51.57;99289.47;4959823;28;7081;-74
2023/01/08 03:04:10;;;;;;;;;;;;;;;15.03;51.07;99289.50;4946221;28;7283;-73
2023/01/08 03:06:37;;;;;;;;;;;;;;;15.03;51.36;99292.09;4981590;28;6799;-74
2023/01/08 03:09:04;;;;;;;;;;;;;;;15.04;51.17;99296.41;4959083;28;6792;-74
2023/01/08 03:11:40;;;;;;;;;;;;;;;15.03;50.93;99297.25;4962569;28;7259;-74
2023/01/08 03:14:25;;;;;;;;;;;;;;;15.05;51.17;99290.41;4958570;28;6800;-73
2023/01/08 03:17:11;;;;;;;;;;;;;;;15.04;51.47;99283.50;4971074;28;6998;-74
2023/01/08 03:19:46;;;;;;;;;;;;;;;15.03;50.73;99281.78;4955940;28;6836;-74
2023/01/08 03:22:16;;;;;;;;;;;;;;;15.02;50.85;99274.88;4956138;28;7027;-74
2023/01/08 03:24:47;;;;;;;;;;;;;;;15.04;51.39;99280.06;4961049;28;7193;-74
2023/01/08 03:27:21;;;;;;;;;;;;;;;15.04;50.82;99270.59;4983864;28;7121;-74
2023/01/08 03:29:52;;;;;;;;;;;;;;;15.04;51.27;99275.75;4956516;28;7002;-72
2023/01/08 03:32:22;;;;;;;;;;;;;;;15.02;51.67;99281.75;4958020;28;7449;-73
2023/01/08 03:34:53;;;;;;;;;;;;;;;15.01;51.34;99273.16;4958242;28;6796;-72
2023/01/08 03:37:27;;;;;;;;;;;;;;;15.03;50.98;99276.63;4985482;28;6800;-73
2023/01/08 03:40:00;;;;;;;;;;;;;;;15.03;50.68;99268.03;4962055;28;8888;-73
2023/01/08 03:42:30;;;;;;;;;;;;;;;15.03;51.45;99263.72;4976288;28;7193;-73
2023/01/08 03:44:56;;;;;;;;;;;;;;;15.04;51.15;99260.28;4955339;28;6999;-72
2023/01/08 03:47:24;;;;;;;;;;;;;;;15.02;51.30;99268.84;4956205;28;7166;-72
2023/01/08 03:49:54;;;;;;;;;;;;;;;15.00;50.95;99272.28;4936372;28;7129;-73
2023/01/08 03:52:30;;;;;;;;;;;;;;;15.03;50.57;99265.44;4968888;28;7266;-72
2023/01/08 03:54:56;;;;;;;;;;;;;;;14.99;50.58;99261.97;4959338;28;6968;-72
2023/01/08 03:57:22;;;;;;;;;;;;;;;14.97;50.38;99255.91;4954277;28;6768;-72
2023/01/08 03:59:47;;;;;;;;;;;;;;;14.98;50.10;99262.81;4974727;28;6776;-72
2023/01/08 04:02:14;;;;;;;;;;;;;;;14.98;50.45;99257.66;4954412;28;6802;-72
2023/01/08 04:04:40;;;;;;;;;;;;;;;14.98;50.10;99258.50;4970665;28;6793;-72
2023/01/08 04:07:05;;;;;;;;;;;;;;;14.98;50.40;99265.38;4970181;28;7354;-72
2023/01/08 04:09:31;;;;;;;;;;;;;;;14.94;50.75;99258.44;4957276;28;7122;-72
2023/01/08 04:11:57;;;;;;;;;;;;;;;14.93;50.63;99256.72;4954580;28;8419;-72
2023/01/08 04:14:22;;;;;;;;;;;;;;;14.93;50.92;99260.19;4974337;28;6994;-73
2023/01/08 04:16:48;;;;;;;;;;;;;;;14.91;50.71;99261.84;4952054;28;7015;-72
2023/01/08 04:19:14;;;;;;;;;;;;;;;14.90;50.42;99256.69;4955779;28;7182;-72
2023/01/08 04:21:39;;;;;;;;;;;;;;;14.84;50.58;99253.16;4983748;28;7389;-72
2023/01/08 04:24:06;;;;;;;;;;;;;;;14.82;51.00;99256.56;4986792;28;6876;-72
2023/01/08 04:26:32;;;;;;;;;;;;;;;14.78;51.26;99249.66;4983796;28;6804;-72
2023/01/08 04:29:00;;;;;;;;;;;;;;;14.78;51.27;99252.25;4956534;28;6792;-72
2023/01/08 04:31:26;;;;;;;;;;;;;;;14.77;50.80;99245.34;4953079;28;6864;-73
2023/01/08 04:33:51;;;;;;;;;;;;;;;14.72;50.61;99235.81;4967882;28;7006;-72
2023/01/08 04:36:17;;;;;;;;;;;;;;;14.72;51.38;99240.09;4957867;28;6827;-72
2023/01/08 04:38:43;;;;;;;;;;;;;;;14.71;50.76;99235.78;4974090;28;7147;-72
2023/01/08 04:41:08;;;;;;;;;;;;;;;14.66;50.55;99234.84;4973930;28;7410;-72
2023/01/08 04:43:34;;;;;;;;;;;;;;;14.62;50.43;99233.09;4960941;28;7408;-72
2023/01/08 04:46:03;;;;;;;;;;;;;;;14.56;50.78;99236.47;4956485;28;7047;-72
2023/01/08 04:48:30;;;;;;;;;;;;;;;14.51;50.11;99233.81;4964045;28;7234;-72
2023/01/08 04:51:00;;;;;;;;;;;;;;;14.46;51.02;99232.88;4961028;28;7221;-72
2023/01/08 04:53:27;;;;;;;;;;;;;;;14.43;50.57;99251.75;4961664;28;7149;-72
2023/01/08 04:55:53;;;;;;;;;;;;;;;14.41;50.50;99245.72;4960065;28;7092;-72
2023/01/08 04:58:19;;;;;;;;;;;;;;;14.35;50.23;99237.91;4945134;28;7240;-72
2023/01/08 05:00:46;;;;;;;;;;;;;;;14.36;50.09;99238.75;4956525;28;7264;-72
2023/01/08 05:03:11;;;;;;;;;;;;;;;14.32;50.70;99240.44;4974173;28;6788;-72
2023/01/08 05:05:37;;;;;;;;;;;;;;;14.29;51.05;99238.69;4977210;28;7033;-72
2023/01/08 05:08:03;;;;;;;;;;;;;;;14.24;50.89;99235.19;4951253;28;6971;-72
2023/01/08 05:10:29;;;;;;;;;;;;;;;14.22;51.33;99233.41;4959546;28;6780;-72
2023/01/08 05:13:01;;;;;;;;;;;;;;;14.15;51.66;99224.72;4960648;28;6784;-72
2023/01/08 05:15:27;;;;;;;;;;;;;;;14.13;51.49;99229.00;4973112;28;6876;-72
2023/01/08 05:18:03;;;;;;;;;;;;;;;14.10;51.66;99227.25;4958431;28;6788;-73
2023/01/08 05:20:29;;;;;;;;;;;;;;;14.02;51.33;99229.72;4973137;28;7272;-72
2023/01/08 05:22:55;;;;;;;;;;;;;;;14.02;51.52;99233.97;4976583;28;6784;-72
2023/01/08 05:25:20;;;;;;;;;;;;;;;14.02;51.68;99224.56;4942164;28;6967;-73
2023/01/08 05:27:46;;;;;;;;;;;;;;;14.02;52.04;99219.41;4956615;28;7251;-72
2023/01/08 05:30:12;;;;;;;;;;;;;;;14.02;52.21;99216.84;4956346;28;6788;-72
2023/01/08 05:32:38;;;;;;;;;;;;;;;14.05;52.73;99223.75;4959933;28;6796;-73
2023/01/08 05:35:05;;;;;;;;;;;;;;;14.06;52.62;99222.03;4990918;28;6816;-72
2023/01/08 05:37:33;;;;;;;;;;;;;;;14.14;52.06;99210.97;4959504;28;6804;-72
2023/01/08 05:39:59;;;;;;;;;;;;;;;14.21;52.65;99235.13;4989896;28;6818;-72
2023/01/08 05:42:25;;;;;;;;;;;;;;;14.22;52.86;99267.78;4992837;28;6783;-73
2023/01/08 05:44:50;;;;;;;;;;;;;;;14.07;52.14;99294.19;4975684;28;7365;-72
2023/01/08 05:47:16;;;;;;;;;;;;;;;13.82;51.44;99282.63;4978354;28;7131;-72
2023/01/08 05:49:41;;;;;;;;;;;;;;;13.52;51.64;99288.94;4963239;28;6768;-72
2023/01/08 05:52:07;;;;;;;;;;;;;;;13.24;52.03;99297.00;4990855;28;7035;-73
2023/01/08 05:54:32;;;;;;;;;;;;;;;12.97;52.62;99305.03;4981776;28;6941;-72
2023/01/08 05:56:58;;;;;;;;;;;;;;;12.73;52.54;99296.84;4965692;28;6779;-72
2023/01/08 05:59:24;;;;;;;;;;;;;;;12.53;53.45;99298.09;4960115;28;6776;-72
2023/01/08 06:01:49;;;;;;;;;;;;;;;12.35;53.01;99302.84;4992747;28;6978;-72
2023/01/08 06:04:15;;;;;;;;;;;;;;;12.22;53.89;99294.00;4963369;28;6780;-72
2023/01/08 06:06:40;;;;;;;;;;;;;;;12.12;53.97;99296.31;4991070;28;7207;-72
2023/01/08 06:09:06;;;;;;;;;;;;;;;12.03;54.01;99291.81;4967020;28;6958;-72
2023/01/08 06:11:32;;;;;;;;;;;;;;;11.94;55.12;99292.41;4961398;28;6784;-73
2023/01/08 06:13:57;;;;;;;;;;;;;;;11.86;55.10;99288.78;4987175;28;6778;-72
2023/01/08 06:16:23;;;;;;;;;;;;;;;11.81;55.17;99274.16;4958477;28;6919;-72
2023/01/08 06:18:48;;;;;;;;;;;;;;;11.76;55.68;99272.31;4961382;28;6776;-72
2023/01/08 06:21:14;;;;;;;;;;;;;;;11.67;55.70;99258.41;4962680;28;6931;-72
2023/01/08 06:23:40;;;;;;;;;;;;;;;11.64;56.30;99270.28;4957958;28;6848;-72
2023/01/08 06:26:05;;;;;;;;;;;;;;;11.58;56.52;99268.44;4954300;28;6780;-72
2023/01/08 06:28:31;;;;;;;;;;;;;;;11.58;56.53;99271.00;4975448;28;6760;-73
2023/01/08 06:30:59;;;;;;;;;;;;;;;11.56;57.02;99266.66;4960032;28;6788;-72
2023/01/08 06:33:25;;;;;;;;;;;;;;;11.55;56.67;99262.34;4961625;28;6812;-71
2023/01/08 06:35:50;;;;;;;;;;;;;;;11.53;56.82;99270.88;4944780;28;7437;-72
2023/01/08 06:38:19;;;;;;;;;;;;;;;11.58;56.80;99278.69;4959690;28;6769;-72
2023/01/08 06:40:48;;;;;;;;;;;;;;;11.59;57.03;99271.84;4961404;28;7149;-72
2023/01/08 06:43:14;;;;;;;;;;;;;;;11.64;57.24;99280.56;4958035;28;6970;-72
2023/01/08 06:45:40;;;;;;;;;;;;;;;11.68;57.26;99282.34;4957274;28;6792;-72
2023/01/08 06:48:06;;;;;;;;;;;;;;;11.70;56.62;99279.84;4959413;28;6812;-72
2023/01/08 06:50:33;;;;;;;;;;;;;;;11.69;57.09;99278.09;4955294;28;6780;-73
2023/01/08 06:53:00;;;;;;;;;;;;;;;11.67;57.38;99273.81;4973863;28;6960;-72
2023/01/08 06:55:26;;;;;;;;;;;;;;;11.65;56.93;99272.03;4986737;28;6855;-72
2023/01/08 06:57:57;;;;;;;;;;;;;;;11.63;57.18;99271.13;4978764;28;6939;-73
2023/01/08 07:00:25;;;;;;;;;;;;;;;11.61;57.29;99272.78;4973610;28;6800;-73
2023/01/08 07:02:53;;;;;;;;;;;;;;;11.59;57.46;99274.41;4956187;28;7007;-72
2023/01/08 07:05:20;;;;;;;;;;;;;;;11.59;57.26;99276.97;4959819;28;6861;-73
2023/01/08 07:07:45;;;;;;;;;;;;;;;11.59;57.18;99280.44;4961505;28;6959;-73
2023/01/08 07:10:11;;;;;;;;;;;;;;;11.60;57.38;99276.19;4958837;28;7055;-73
2023/01/08 07:12:37;;;;;;;;;;;;;;;11.63;57.48;99281.38;4955132;28;6796;-72
2023/01/08 07:15:03;;;;;;;;;;;;;;;11.66;57.82;99289.16;4980688;28;7632;-72
2023/01/08 07:17:31;;;;;;;;;;;;;;;11.69;57.25;99285.81;4956127;28;6784;-72
2023/01/08 07:19:57;;;;;;;;;;;;;;;11.74;57.55;99279.09;4964065;28;8063;-73
2023/01/08 07:22:24;;;;;;;;;;;;;;;11.76;56.88;99278.28;4957029;28;6772;-72
2023/01/08 07:24:51;;;;;;;;;;;;;;;11.79;57.42;99285.19;4957793;28;7214;-72
2023/01/08 07:27:16;;;;;;;;;;;;;;;11.79;56.81;99287.78;4945882;28;7017;-72
2023/01/08 07:29:42;;;;;;;;;;;;;;;11.79;56.87;99287.78;4977705;28;6848;-73
2023/01/08 07:32:08;;;;;;;;;;;;;;;11.77;57.06;99281.72;4957875;28;6788;-72
2023/01/08 07:34:33;;;;;;;;;;;;;;;11.76;56.57;99283.41;4973173;28;7557;-72
2023/01/08 07:37:00;;;;;;;;;;;;;;;11.74;56.59;99277.38;4963237;28;6768;-72
2023/01/08 07:39:25;;;;;;;;;;;;;;;11.72;56.68;99286.75;4990336;28;6958;-72
2023/01/08 07:41:51;;;;;;;;;;;;;;;11.69;56.41;99281.56;4989279;28;6780;-72
2023/01/08 07:44:16;;;;;;;;;;;;;;;11.65;56.62;99274.59;4958919;28;6796;-72
2023/01/08 07:46:42;;;;;;;;;;;;;;;11.64;56.75;99278.88;4953287;28;6772;-72
2023/01/08 07:49:08;;;;;;;;;;;;;;;11.62;56.17;99279.66;4961148;28;7023;-73
2023/01/08 07:51:33;;;;;;;;;;;;;;;11.63;56.64;99289.09;4988974;28;6776;-73
2023/01/08 07:53:59;;;;;;;;;;;;;;;11.62;56.12;99290.75;4973751;28;6959;-72
2023/01/08 07:56:25;;;;;;;;;;;;;;;11.61;56.65;99277.91;4962398;28;7002;-72
2023/01/08 07:58:51;;;;;;;;;;;;;;;11.59;56.07;99290.69;4995680;28;6998;-72
2023/01/08 08:01:16;;;;;;;;;;;;;;;11.57;56.14;99281.22;4968113;28;7401;-72
2023/01/08 08:03:42;;;;;;;;;;;;;;;11.53;56.43;99288.84;4957513;28;7232;-73
2023/01/08 08:06:08;;;;;;;;;;;;;;;11.50;56.08;99287.88;4977507;28;7004;-72
2023/01/08 08:08:34;;;;;;;;;;;;;;;11.48;56.19;99290.41;4978728;28;7230;-72
2023/01/08 08:11:00;;;;;;;;;;;;;;;11.46;56.26;99278.38;4973322;28;7841;-73
2023/01/08 08:13:26;;;;;;;;;;;;;;;11.44;56.69;99278.34;4964728;28;6788;-73
2023/01/08 08:15:51;;;;;;;;;;;;;;;11.42;56.54;99274.88;4959989;28;6757;-73
2023/01/08 08:18:17;;;;;;;;;;;;;;;11.43;56.51;99276.59;4968080;28;6772;-72
2023/01/08 08:20:43;;;;;;;;;;;;;;;11.42;56.13;99271.41;4991615;28;7212;-73
2023/01/08 08:23:12;;;;;;;;;;;;;;;11.41;56.14;99265.44;4965985;28;7533;-73
2023/01/08 08:25:40;;;;;;;;;;;;;;;11.41;56.33;99264.56;4957417;28;6888;-72
2023/01/08 08:28:06;;;;;;;;;;;;;;;11.40;56.58;99263.69;4993020;28;6800;-72
2023/01/08 08:30:35;;;;;;;;;;;;;;;11.41;56.58;99259.41;4978294;28;6784;-74
2023/01/08 08:33:04;;;;;;;;;;;;;;;11.42;56.84;99251.78;4990826;28;8496;-72
2023/01/08 08:35:32;;;;;;;;;;;;;;;11.43;56.89;99243.25;4969455;28;7747;-73
2023/01/08 08:37:58;;;;;;;;;;;;;;;11.45;57.39;99251.84;4960639;28;6947;-72
2023/01/08 08:40:25;;;;;;;;;;;;;;;11.51;57.24;99251.13;4962510;28;7447;-72
2023/01/08 08:42:59;;;;;;;;;;;;;;;11.58;57.14;99252.16;4958978;28;6792;-72
2023/01/08 08:45:26;;;;;;;;;;;;;;;11.60;57.47;99253.09;4962771;28;6951;-72
2023/01/08 08:47:51;;;;;;;;;;;;;;;11.65;57.40;99254.94;4975059;28;6780;-72
2023/01/08 08:50:18;;;;;;;;;;;;;;;11.73;57.46;99247.41;4962158;28;6860;-72
2023/01/08 08:52:44;;;;;;;;;;;;;;;11.77;57.11;99244.09;4984403;28;7041;-72
2023/01/08 08:55:16;;;;;;;;;;;;;;;11.80;57.96;99246.75;4957174;28;6804;-72
2023/01/08 08:57:43;;;;;;;;;;;;;;;11.88;57.69;99243.47;4984216;28;6905;-72
2023/01/08 09:00:10;;;;;;;;;;;;;;;11.95;57.15;99227.38;4981104;28;6997;-72
2023/01/08 09:02:36;;;;;;;;;;;;;;;12.02;57.36;99229.31;4976899;28;13347;-72
2023/01/08 09:05:01;;;;;;;;;;;;;;;12.11;57.71;99227.78;4962442;28;6970;-72
2023/01/08 09:07:27;;;;;;;;;;;;;;;12.26;58.14;99212.69;4992591;28;6780;-72
2023/01/08 09:09:53;;;;;;;;;;;;;;;12.40;57.60;99205.28;4963810;28;6768;-72
2023/01/08 09:12:18;;;;;;;;;;;;;;;12.58;58.00;99201.38;4960142;28;6772;-72
2023/01/08 09:14:44;;;;;;;;;;;;;;;12.70;57.49;99205.91;4969366;28;7098;-72
2023/01/08 09:17:09;;;;;;;;;;;;;;;12.84;57.43;99201.91;4988123;28;6918;-72
2023/01/08 09:19:35;;;;;;;;;;;;;;;12.98;57.76;99203.88;4958037;28;6804;-74
2023/01/08 09:22:02;;;;;;;;;;;;;;;13.11;56.89;99197.28;4957073;28;6776;-72
2023/01/08 09:24:27;;;;;;;;;;;;;;;13.26;56.68;99206.97;4961454;28;6792;-72
2023/01/08 09:26:53;;;;;;;;;;;;;;;13.38;56.74;99191.75;4979084;28;7040;-72
2023/01/08 09:29:20;;;;;;;;;;;;;;;13.46;55.89;99209.91;4959091;28;6796;-72
2023/01/08 09:31:46;;;;;;;;;;;;;;;13.54;56.17;99202.34;4992060;28;6792;-72
2023/01/08 09:34:11;;;;;;;;;;;;;;;13.64;56.29;99198.19;4958347;28;10298;-72
2023/01/08 09:36:37;;;;;;;;;;;;;;;13.78;55.37;99198.41;4959627;28;6780;-73
2023/01/08 09:39:03;;;;;;;;;;;;;;;13.92;55.19;99199.50;4961379;28;6847;-72
2023/01/08 09:41:39;;;;;;;;;;;;;;;14.05;54.72;99202.25;4997584;28;6975;-72
2023/01/08 09:44:06;;;;;;;;;;;;;;;14.11;54.39;99199.78;4991940;28;7023;-72
2023/01/08 09:46:35;;;;;;;;;;;;;;;14.14;53.95;99192.09;4978922;28;6792;-72
2023/01/08 09:49:06;;;;;;;;;;;;;;;14.16;54.79;99180.97;4962059;28;6804;-73
2023/01/08 09:51:37;;;;;;;;;;;;;;;14.19;54.76;99189.56;4974701;28;6816;-72
2023/01/08 09:54:06;;;;;;;;;;;;;;;14.26;54.09;99189.66;4989613;28;6807;-73
2023/01/08 09:56:36;;;;;;;;;;;;;;;14.33;53.76;99179.44;4990332;28;6800;-72
2023/01/08 09:59:04;;;;;;;;;;;;;;;14.36;53.42;99169.16;4954626;28;7193;-72
2023/01/08 10:01:36;;;;;;;;;;;;;;;14.36;53.31;99166.59;4976371;28;6989;-73
2023/01/08 10:04:13;;;;;;;;;;;;;;;14.28;52.80;99167.34;4960516;28;7557;-72
2023/01/08 10:06:40;;;;;;;;;;;;;;;14.29;52.98;99165.66;4992125;28;6943;-73
2023/01/08 10:09:13;;;;;;;;;;;;;;;14.34;53.24;99163.13;4961995;28;6935;-73
2023/01/08 10:11:45;;;;;;;;;;;;;;;14.41;53.46;99159.81;4989990;28;7897;-72
2023/01/08 10:14:29;;;;;;;;;;;;;;;14.55;52.73;99152.22;4948275;28;6992;-72
2023/01/08 10:17:19;;;;;;;;;;;;;;;14.69;52.91;99149.81;4957552;28;6875;-73
2023/01/08 10:19:45;;;;;;;;;;;;;;;14.83;52.53;99140.53;4958061;28;6876;-73
2023/01/08 10:22:21;;;;;;;;;;;;;;;14.96;52.75;99138.06;4962205;28;9423;-73
2023/01/08 10:24:47;;;;;;;;;;;;;;;15.06;52.60;99137.31;4956873;28;7965;-75
2023/01/08 10:27:21;;;;;;;;;;;;;;;15.09;52.05;99133.91;4976313;28;7224;-74
2023/01/08 10:29:49;;;;;;;;;;;;;;;15.08;51.79;99122.72;4990834;28;6800;-75
2023/01/08 10:32:23;;;;;;;;;;;;;;;15.04;52.03;99120.94;4987033;28;7317;-74
2023/01/08 10:34:55;;;;;;;;;;;;;;;14.95;51.39;99120.84;4987281;28;7224;-74
2023/01/08 10:37:38;;;;;;;;;;;;;;;14.72;51.50;99113.72;4961966;28;7240;-74
2023/01/08 10:40:22;;;;;;;;;;;;;;;14.46;52.23;99110.88;4975568;28;6980;-74
2023/01/08 10:42:51;;;;;;;;;;;;;;;14.30;53.25;99110.69;4961441;28;6796;-74
2023/01/08 10:45:26;;;;;;;;;;;;;;;14.21;53.58;99108.88;4963391;28;6820;-74
2023/01/08 10:47:59;;;;;;;;;;;;;;;14.15;53.95;99109.66;4988963;28;7183;-74
2023/01/08 10:50:31;;;;;;;;;;;;;;;14.08;53.87;99110.41;4964329;28;6796;-74
2023/01/08 10:53:01;;;;;;;;;;;;;;;13.97;53.59;99106.84;4961188;28;6788;-74
2023/01/08 10:55:30;;;;;;;;;;;;;;;13.92;53.96;99105.91;4959839;28;6796;-74
2023/01/08 10:58:08;;;;;;;;;;;;;;;13.85;54.02;99107.53;4958487;28;7244;-74
2023/01/08 11:00:36;;;;;;;;;;;;;;;13.81;54.42;99116.03;4975754;28;8599;-74
2023/01/08 11:03:19;;;;;;;;;;;;;;;13.80;54.44;99145.22;4959505;28;6796;-73
2023/01/08 11:05:46;;;;;;;;;;;;;;;13.69;54.06;99135.63;4970150;28;6979;-72
2023/01/08 11:08:19;;;;;;;;;;;;;;;13.37;53.66;99135.97;4953135;28;6864;-73
2023/01/08 11:11:00;;;;;;;;;;;;;;;13.08;54.77;99122.59;4960377;28;6816;-73
2023/01/08 11:13:28;;;;;;;;;;;;;;;12.85;54.82;99111.09;4968626;28;7706;-73
2023/01/08 11:16:06;;;;;;;;;;;;;;;12.68;56.07;99108.19;4957562;28;6797;-73
2023/01/08 11:18:50;;;;;;;;;;;;;;;12.54;56.35;99105.34;4958616;28;6808;-73
2023/01/08 11:21:26;;;;;;;;;;;;;;;12.55;56.17;99108.81;4989850;28;9329;-73
2023/01/08 11:24:28;;;;;;;;;;;;;;;12.61;57.06;99112.34;4989233;28;7076;-73
2023/01/08 11:27:17;;;;;;;;;;;;;;;12.79;57.47;99105.81;4964069;28;7011;-73
2023/01/08 11:30:08;;;;;;;;;;;;;;;13.44;56.65;99106.03;4959032;28;6827;-72
2023/01/08 11:32:59;;;;;;;;;;;;;;;14.60;55.11;99099.00;4957991;28;7384;-73
2023/01/08 11:35:28;;;;;;;;;;;;;;;15.58;53.55;99088.66;4970369;28;7802;-72
2023/01/08 11:37:58;;;;;;;;;;;;;;;16.33;51.82;99082.19;4954248;28;6968;-72
2023/01/08 11:40:48;;;;;;;;;;;;;;;16.94;50.27;99085.78;4984387;28;6970;-72
2023/01/08 11:43:33;;;;;;;;;;;;;;;17.43;49.61;99084.06;4957229;28;6819;-72
2023/01/08 11:46:08;;;;;;;;;;;;;;;17.89;48.58;99073.59;4959396;28;7282;-72
2023/01/08 11:48:55;;;;;;;;;;;;;;;18.27;47.09;99065.72;4957982;28;7031;-72
2023/01/08 11:51:57;;;;;;;;;;;;;;;18.54;46.83;99066.41;4975802;28;7183;-72
2023/01/08 11:54:47;;;;;;;;;;;;;;;18.81;45.86;99060.19;4981151;28;7141;-72
2023/01/08 11:57:41;;;;;;;;;;;;;;;19.05;45.21;99052.28;4956731;28;8095;-72
2023/01/08 12:00:39;;;;;;;;;;;;;;;18.57;45.82;99050.84;4958645;28;6843;-72
2023/01/08 12:03:27;;;;;;;;;;;;;;;18.00;46.51;99049.38;4962683;28;11996;-73
2023/01/08 12:06:21;;;;;;;;;;;;;;;17.30;46.71;99049.56;4960346;28;6985;-72
2023/01/08 12:09:12;;;;;;;;;;;;;;;16.46;47.70;99047.75;4970832;28;7004;-72
2023/01/08 12:11:50;;;;;;;;;;;;;;;15.90;48.86;99042.38;4946367;28;6804;-72
2023/01/08 12:14:47;;;;;;;;;;;;;;;15.40;49.39;99038.63;4978199;28;6984;-72
2023/01/08 12:17:56;;;;;;;;;;;;;;;14.99;50.31;99030.59;4943640;28;9728;-72
2023/01/08 12:20:38;;;;;;;;;;;;;;;14.69;50.61;99034.63;4963818;28;7065;-72
2023/01/08 12:23:42;;;;;;;;;;;;;;;14.49;51.20;99028.41;4946322;28;6991;-72
2023/01/08 12:26:36;;;;;;;;;;;;;;;14.33;51.16;99012.78;4978137;28;7039;-72
2023/01/08 12:29:36;;;;;;;;;;;;;;;14.21;52.18;99020.38;4944594;28;6808;-72
2023/01/08 12:32:27;;;;;;;;;;;;;;;14.13;52.25;99018.56;4968265;28;7193;-72
2023/01/08 12:35:10;;;;;;;;;;;;;;;14.09;51.84;99027.13;4941054;28;7181;-72
2023/01/08 12:38:05;;;;;;;;;;;;;;;14.10;51.87;99025.41;4943909;28;7322;-72
2023/01/08 12:40:53;;;;;;;;;;;;;;;14.10;52.53;99015.09;4939082;28;6800;-72
2023/01/08 12:43:48;;;;;;;;;;;;;;;14.08;52.61;99016.81;4946909;28;7179;-73
2023/01/08 12:46:15;;;;;;;;;;;;;;;14.11;52.68;99009.13;4947892;28;6955;-72
2023/01/08 12:48:46;;;;;;;;;;;;;;;14.21;52.48;99018.69;4944178;28;6797;-72
2023/01/08 12:51:27;;;;;;;;;;;;;;;14.30;52.25;99008.47;4941122;28;6803;-72
2023/01/08 12:54:03;;;;;;;;;;;;;;;14.43;52.13;99003.44;4943393;28;6819;-72
2023/01/08 12:57:30;;;;;;;;;;;;;;;14.58;52.41;99002.72;4939328;28;6808;-72
2023/01/08 13:00:26;;;;;;;;;;;;;;;14.62;51.75;98988.16;4931331;28;7023;-73
2023/01/08 13:03:03;;;;;;;;;;;;;;;14.62;51.35;98995.88;4962602;28;11141;-72
2023/01/08 13:05:36;;;;;;;;;;;;;;;14.66;50.32;98989.88;4962000;28;6808;-72
2023/01/08 13:08:17;;;;;;;;;;;;;;;14.62;50.07;98994.16;4980462;28;7099;-73
2023/01/08 13:10:53;;;;;;;;;;;;;;;14.60;50.54;98995.00;4964300;28;6792;-73
2023/01/08 13:13:43;;;;;;;;;;;;;;;14.53;50.16;98992.38;4980460;28;6792;-72
2023/01/08 13:16:15;;;;;;;;;;;;;;;14.47;50.15;98984.56;4985820;28;7781;-72
2023/01/08 13:18:57;;;;;;;;;;;;;;;14.40;49.69;98982.78;4991421;28;6926;-72
2023/01/08 13:21:32;;;;;;;;;;;;;;;14.35;50.51;98980.19;4959834;28;6824;-72
2023/01/08 13:24:34;;;;;;;;;;;;;;;14.34;50.64;98982.72;4958462;28;6799;-73